Airport View

Enter AWOS ICAO identifier for current METAR.

ex. KFNL

KGAF 112210Z AUTO 17006KT 8SM CLR M20/M24 A3034 RMK AO2

11 Dec 2019 22:07

Frequency: 118.625

Phone: 701-352-0581

Other Area AWOS: K2C8 - KRDR - KHCO - KGFK

TAF AMD KRDR 111805Z 1118/1224 23012KT 9999 SCT200 QNH3027INS BECMG 1202/1203 VRB06KT 9999 BKN080 620804 QNH3017INS BECMG 1204/1205 15009KT 4800 -SN OVC015 620159 QNH3008INS BECMG 1209/1210 15009KT 9999 NSW OVC015 620155 QNH3000INS TXM16/1217Z TNM20/1118Z